Rangoon, Myanmar

5:53 PM +0630 on November 23, 2017 (GMT +0630)
Mayangone, Yangon | | Change Station

Elev 46 ft 16.87 °N, 96.12 °E | Updated 11 seconds ago

Mostly Cloudy
Mostly Cloudy
83.8 °F
Feels Like 92 °F
N
0.0
Wind Variable Wind from SSE
Gusts 0.0 mph

Today
High -- | Low -- °F
--% Chance of Precip.
Yesterday
High -- | Low -- °F
Precip. -- in
Pressure 29.77 in
Visibility 3.7 miles
Clouds Mostly Cloudy 1500 ft
Few 1800 ft
Mostly Cloudy 10000 ft
Heat Index 92 °F
Dew Point 76 °F
Humidity 76%
Rainfall 0.00 in
Snow Depth Not available.
6:13 AM 5:29 PM
Waxing Crescent, 21% visible
METAR VYYY 231030Z 16003KT 6000 DZ BKN015 FEW018CB BKN100 28/23 Q1008
Pressure 29.77 in
Visibility 3.7 miles
Clouds Mostly Cloudy 1500 ft
Few 1800 ft
Mostly Cloudy 10000 ft
Heat Index 92 °F
Dew Point 76 °F
Humidity 76%
Rainfall 0.00 in
Snow Depth Not available.
6:13 AM 5:29 PM
Waxing Crescent, 21% visible
METAR VYYY 231030Z 16003KT 6000 DZ BKN015 FEW018CB BKN100 28/23 Q1008

Get Severe Weather Alerts

Thanks for signing up!

Be on the lookout for a verification email in your inbox.

You'll start receiving the daily forecast at 6 AM.

×

10-Day Weather Forecast

No radar image for this location.
×

Almanac

Astronomy

Nov. 23, 2017 Rise Set
Actual Time
Civil Twilight
Nautical Twilight
Astronomical Twilight
Moon
Length of Visible Light
Length of Day
Tomorrow will be .
, % of the Moon is Illuminated

Today's Extremes

Country Highs Country Lows

Community

WunderPhotos

Category 6

Welcome to Category 6. This is the collective home for Weather Underground's featured writeups by Dr. Jeff Masters (right), Bob Henson (left), Chris Burt, and other regular contributors.

Nearby

Air Quality

  Air Quality AQ Index Pollutant
Not available.

Snow Depth

Station Depth Elevation

Earthquake Activity

City Distance Mag. Time & Date
Minimum magnitude displayed is 2.5.

Coastal Water Temperatures

Place Temperature

Stations

Nearby Weather Stations

Station Location Temp. Windchill Dew Point Humidity Wind Precip. Elev Updated Type